createdAt,value
2023-05-14T00:02:02.528Z,9.02
2023-05-14T00:04:30.163Z,9.68
2023-05-14T00:06:57.709Z,8.75
2023-05-14T00:09:25.275Z,9.75
2023-05-14T00:11:53.069Z,9.90
2023-05-14T00:14:20.587Z,10.02
2023-05-14T00:16:48.128Z,10.02
2023-05-14T00:19:15.872Z,10.88
2023-05-14T00:21:43.409Z,10.15
2023-05-14T00:24:11.012Z,10.27
2023-05-14T00:26:38.489Z,11.18
2023-05-14T00:29:06.482Z,12.50
2023-05-14T00:31:33.916Z,11.63
2023-05-14T00:34:01.708Z,13.40
2023-05-14T00:36:29.288Z,12.73
2023-05-14T00:38:56.836Z,13.55
2023-05-14T00:41:24.466Z,16.67
2023-05-14T00:43:52.063Z,15.18
2023-05-14T00:46:19.675Z,16.75
2023-05-14T00:48:47.513Z,13.45
2023-05-14T00:51:15.059Z,15.25
2023-05-14T00:53:42.860Z,13.35
2023-05-14T00:56:11.065Z,12.75
2023-05-14T00:58:38.683Z,12.98
2023-05-14T01:01:06.323Z,11.65
2023-05-14T01:03:34.941Z,11.23
2023-05-14T01:06:22.101Z,11.93
2023-05-14T01:09:27.035Z,10.02
2023-05-14T01:12:16.644Z,10.45
2023-05-14T01:15:11.356Z,9.77
2023-05-14T01:17:58.909Z,8.70
2023-05-14T01:20:27.379Z,10.60
2023-05-14T01:22:54.848Z,9.55
2023-05-14T01:25:22.345Z,9.70
2023-05-14T01:27:55.977Z,9.95
2023-05-14T01:30:40.660Z,9.75
2023-05-14T01:33:13.298Z,10.60
2023-05-14T01:35:42.454Z,11.02
2023-05-14T01:38:12.086Z,11.73
2023-05-14T01:40:40.494Z,10.43
2023-05-14T01:43:09.001Z,11.68
2023-05-14T01:45:37.149Z,12.77
2023-05-14T01:48:06.054Z,12.48
2023-05-14T01:50:33.688Z,12.15
2023-05-14T01:53:01.323Z,11.73
2023-05-14T01:55:28.891Z,13.93
2023-05-14T01:57:56.581Z,13.18
2023-05-14T02:00:27.942Z,14.88
2023-05-14T02:02:55.474Z,14.30
2023-05-14T02:05:23.973Z,15.10
2023-05-14T02:07:51.649Z,14.93
2023-05-14T02:10:19.233Z,16.15
2023-05-14T02:12:50.328Z,17.60
2023-05-14T02:15:17.872Z,16.35
2023-05-14T02:17:45.471Z,16.88
2023-05-14T02:20:13.363Z,17.50
2023-05-14T02:22:45.935Z,18.45
2023-05-14T02:25:13.403Z,17.90
2023-05-14T02:27:40.877Z,19.70
2023-05-14T02:30:09.747Z,20.52
2023-05-14T02:32:38.003Z,21.98
2023-05-14T02:35:05.978Z,23.58
2023-05-14T02:37:35.044Z,21.80
2023-05-14T02:40:02.521Z,22.65
2023-05-14T02:42:31.062Z,21.33
2023-05-14T02:44:58.655Z,21.83
2023-05-14T02:47:27.311Z,23.60
2023-05-14T02:49:54.940Z,23.92
2023-05-14T02:52:22.452Z,24.77
2023-05-14T02:54:49.893Z,22.73
2023-05-14T02:57:17.419Z,24.65
2023-05-14T02:59:44.905Z,24.95
2023-05-14T03:02:12.995Z,25.40
2023-05-14T03:04:41.066Z,24.55
2023-05-14T03:07:08.601Z,25.48
2023-05-14T03:09:38.126Z,26.92
2023-05-14T03:12:07.027Z,28.15
2023-05-14T03:14:34.580Z,30.10
2023-05-14T03:17:02.422Z,31.92
2023-05-14T03:19:30.029Z,31.70
2023-05-14T03:21:57.571Z,30.75
2023-05-14T03:24:25.022Z,30.08
2023-05-14T03:26:52.525Z,31.25
2023-05-14T03:29:20.018Z,32.58
2023-05-14T03:31:47.535Z,33.10
2023-05-14T03:34:15.408Z,31.75
2023-05-14T03:36:43.074Z,35.05
2023-05-14T03:39:10.499Z,34.78
2023-05-14T03:41:39.579Z,38.30
2023-05-14T03:44:07.154Z,42.47
2023-05-14T03:46:34.861Z,39.97
2023-05-14T03:49:02.851Z,41.05
2023-05-14T03:51:30.446Z,41.97
2023-05-14T03:53:58.668Z,43.22
2023-05-14T03:56:26.507Z,45.75
2023-05-14T03:58:54.078Z,44.05
2023-05-14T04:01:21.504Z,45.45
2023-05-14T04:03:49.157Z,47.28
2023-05-14T04:06:16.747Z,46.25
2023-05-14T04:08:44.341Z,46.58
2023-05-14T04:11:12.247Z,45.75
2023-05-14T04:13:39.788Z,45.38
2023-05-14T04:16:07.732Z,46.40
2023-05-14T04:18:36.098Z,45.53
2023-05-14T04:21:03.690Z,45.40
2023-05-14T04:23:32.138Z,42.58
2023-05-14T04:25:59.782Z,42.90
2023-05-14T04:28:27.265Z,42.75
2023-05-14T04:30:54.699Z,43.47
2023-05-14T04:33:22.199Z,40.95
2023-05-14T04:35:49.675Z,44.15
2023-05-14T04:38:17.394Z,42.35
2023-05-14T04:40:44.856Z,41.53
2023-05-14T04:43:12.432Z,42.63
2023-05-14T04:45:41.352Z,41.67
2023-05-14T04:48:09.258Z,44.15
2023-05-14T04:50:36.715Z,42.90
2023-05-14T04:53:04.282Z,41.55
2023-05-14T04:55:32.012Z,44.13
2023-05-14T04:57:59.442Z,42.97
2023-05-14T05:00:27.375Z,43.20
2023-05-14T05:02:55.086Z,44.13
2023-05-14T05:05:22.861Z,43.35
2023-05-14T05:07:50.335Z,43.85
2023-05-14T05:10:17.865Z,43.97
2023-05-14T05:12:46.158Z,44.78
2023-05-14T05:15:13.669Z,45.85
2023-05-14T05:17:42.165Z,46.45
2023-05-14T05:20:10.446Z,46.17
2023-05-14T05:22:38.254Z,47.50
2023-05-14T05:25:06.594Z,47.83
2023-05-14T05:27:34.406Z,48.75
2023-05-14T05:30:02.490Z,50.65
2023-05-14T05:32:31.725Z,47.50
2023-05-14T05:34:59.305Z,48.05
2023-05-14T05:37:26.800Z,46.88
2023-05-14T05:39:55.588Z,50.60
2023-05-14T05:42:23.036Z,50.85
2023-05-14T05:44:50.477Z,48.20
2023-05-14T05:47:18.093Z,49.55
2023-05-14T05:49:45.605Z,48.95
2023-05-14T05:52:13.314Z,47.03
2023-05-14T05:54:40.817Z,47.53
2023-05-14T05:57:08.341Z,47.15
2023-05-14T05:59:36.465Z,46.72
2023-05-14T06:02:04.122Z,48.25
2023-05-14T06:04:31.591Z,47.47
2023-05-14T06:06:59.065Z,47.80
2023-05-14T06:09:26.689Z,47.47
2023-05-14T06:11:54.428Z,46.53
2023-05-14T06:14:22.142Z,47.30
2023-05-14T06:16:49.694Z,43.88
2023-05-14T06:19:17.303Z,44.95
2023-05-14T06:21:44.923Z,43.60
2023-05-14T06:24:13.582Z,42.90
2023-05-14T06:26:41.184Z,43.03
2023-05-14T06:29:08.722Z,42.65
2023-05-14T06:31:36.158Z,46.15
2023-05-14T06:34:03.998Z,43.28
2023-05-14T06:36:31.445Z,43.25
2023-05-14T06:38:58.964Z,46.10
2023-05-14T06:41:26.519Z,43.97
2023-05-14T06:43:54.030Z,43.88
2023-05-14T06:46:22.002Z,46.03
2023-05-14T06:48:49.588Z,44.42
2023-05-14T06:51:17.165Z,43.92
2023-05-14T06:53:44.657Z,46.95
2023-05-14T06:56:13.258Z,45.85
2023-05-14T06:58:40.940Z,45.50
2023-05-14T07:01:08.441Z,46.80
2023-05-14T07:03:36.242Z,49.10
2023-05-14T07:06:04.024Z,49.05
2023-05-14T07:08:31.513Z,48.55
2023-05-14T07:10:59.137Z,49.67
2023-05-14T07:13:28.888Z,50.40
2023-05-14T07:15:56.548Z,49.97
2023-05-14T07:18:24.413Z,50.05
2023-05-14T07:20:51.859Z,51.17
2023-05-14T07:23:20.034Z,50.85
2023-05-14T07:25:47.678Z,51.35
2023-05-14T07:28:15.208Z,52.72
2023-05-14T07:30:42.611Z,50.97
2023-05-14T07:33:10.272Z,53.42
2023-05-14T07:35:37.789Z,53.03
2023-05-14T07:38:06.171Z,53.33
2023-05-14T07:40:33.649Z,52.50
2023-05-14T07:43:01.203Z,53.60
2023-05-14T07:45:28.696Z,53.63
2023-05-14T07:47:56.550Z,55.92
2023-05-14T07:50:24.555Z,53.85
2023-05-14T07:52:52.149Z,54.42
2023-05-14T07:55:19.712Z,55.30
2023-05-14T07:57:47.343Z,53.33
2023-05-14T08:00:16.272Z,52.53
2023-05-14T08:02:45.163Z,52.80
2023-05-14T08:05:13.019Z,53.13
2023-05-14T08:07:40.699Z,53.72
2023-05-14T08:10:08.865Z,51.92
2023-05-14T08:12:36.556Z,51.50
2023-05-14T08:15:04.395Z,52.72
2023-05-14T08:17:32.396Z,52.50
2023-05-14T08:19:59.884Z,52.60
2023-05-14T08:22:27.362Z,53.55
2023-05-14T08:24:54.772Z,52.10
2023-05-14T08:27:23.280Z,51.33
2023-05-14T08:29:51.714Z,48.35
2023-05-14T08:32:23.448Z,48.80
2023-05-14T08:34:52.157Z,47.65
2023-05-14T08:37:19.824Z,51.13
2023-05-14T08:39:47.406Z,48.38
2023-05-14T08:42:21.086Z,47.72
2023-05-14T08:44:50.426Z,49.33
2023-05-14T08:47:21.129Z,49.45
2023-05-14T08:49:59.155Z,48.88
2023-05-14T08:52:26.893Z,48.15
2023-05-14T08:54:55.998Z,48.60
2023-05-14T08:57:26.838Z,49.28
2023-05-14T08:59:54.592Z,47.22
2023-05-14T09:02:25.658Z,45.72
2023-05-14T09:04:56.976Z,43.75
2023-05-14T09:07:25.065Z,46.10
2023-05-14T09:09:53.739Z,43.90
2023-05-14T09:12:21.891Z,43.67
2023-05-14T09:14:50.681Z,45.67
2023-05-14T09:17:19.162Z,46.90
2023-05-14T09:19:49.411Z,47.83
2023-05-14T09:22:18.420Z,47.08
2023-05-14T09:24:46.606Z,46.20
2023-05-14T09:27:22.766Z,47.53
2023-05-14T09:29:50.200Z,45.13
2023-05-14T09:32:18.416Z,37.97
2023-05-14T09:34:45.926Z,36.90
2023-05-14T09:37:13.495Z,36.75
2023-05-14T09:39:41.076Z,35.95
2023-05-14T09:42:08.649Z,35.95
2023-05-14T09:44:38.312Z,35.33
2023-05-14T09:47:06.513Z,35.53
2023-05-14T09:49:34.587Z,35.33
2023-05-14T09:52:03.865Z,31.38
2023-05-14T09:54:33.407Z,25.70
2023-05-14T09:57:01.132Z,25.55
2023-05-14T09:59:28.671Z,25.75
2023-05-14T10:01:57.743Z,24.58
2023-05-14T10:04:25.854Z,26.60
2023-05-14T10:06:54.617Z,26.88
2023-05-14T10:09:26.579Z,28.55
2023-05-14T10:11:58.200Z,28.27
2023-05-14T10:14:33.090Z,27.15
2023-05-14T10:17:02.245Z,28.90
2023-05-14T10:19:34.633Z,27.08
2023-05-14T10:22:08.226Z,26.92
2023-05-14T10:24:39.112Z,27.25
2023-05-14T10:27:07.119Z,29.00
2023-05-14T10:29:36.256Z,29.15
2023-05-14T10:32:08.633Z,26.02
2023-05-14T10:34:41.864Z,26.27
2023-05-14T10:37:14.612Z,25.65
2023-05-14T10:39:54.218Z,24.45
2023-05-14T10:42:22.884Z,23.15
2023-05-14T10:44:59.026Z,24.38
2023-05-14T10:47:27.889Z,24.67
2023-05-14T10:49:58.461Z,25.45
2023-05-14T10:52:26.812Z,25.50
2023-05-14T10:54:56.666Z,26.73
2023-05-14T10:57:27.890Z,26.77
2023-05-14T10:59:58.018Z,27.23
2023-05-14T11:02:27.649Z,29.70
2023-05-14T11:05:04.225Z,27.98
2023-05-14T11:07:38.206Z,28.08
2023-05-14T11:10:07.743Z,31.52
2023-05-14T11:12:37.378Z,31.02
2023-05-14T11:15:07.860Z,30.63
2023-05-14T11:17:36.757Z,31.15
2023-05-14T11:20:08.337Z,30.55
2023-05-14T11:22:37.638Z,33.35
2023-05-14T11:25:06.655Z,32.65
2023-05-14T11:27:36.302Z,31.83
2023-05-14T11:30:04.334Z,32.95
2023-05-14T11:32:33.740Z,33.00
2023-05-14T11:35:01.465Z,33.33
2023-05-14T11:37:30.927Z,33.17
2023-05-14T11:40:01.282Z,31.45
2023-05-14T11:42:31.379Z,31.08
2023-05-14T11:44:59.942Z,31.08
2023-05-14T11:47:31.937Z,29.98
2023-05-14T11:50:00.406Z,30.25
2023-05-14T11:52:28.000Z,30.83
2023-05-14T11:54:55.614Z,31.45
2023-05-14T11:57:23.596Z,30.63
2023-05-14T11:59:59.254Z,30.40
2023-05-14T12:02:30.784Z,30.10
2023-05-14T12:04:58.437Z,29.98
2023-05-14T12:07:30.752Z,31.05
2023-05-14T12:10:02.225Z,31.45
2023-05-14T12:12:36.202Z,31.30
2023-05-14T12:15:11.781Z,31.13
2023-05-14T12:17:40.124Z,29.73
2023-05-14T12:20:12.628Z,29.92
2023-05-14T12:22:42.945Z,30.05
2023-05-14T12:25:14.371Z,30.83
2023-05-14T12:27:46.493Z,30.17
2023-05-14T12:32:46.192Z,29.52
2023-05-14T12:35:13.712Z,30.77
2023-05-14T12:37:42.175Z,30.90
2023-05-14T12:40:10.376Z,31.20
2023-05-14T12:42:38.124Z,30.58
2023-05-14T12:45:08.276Z,33.58
2023-05-14T12:47:37.501Z,33.70
2023-05-14T12:50:06.333Z,32.58
2023-05-14T12:52:38.501Z,32.00
2023-05-14T12:55:07.776Z,33.33
2023-05-14T12:57:35.839Z,35.40
2023-05-14T13:00:08.268Z,36.53
2023-05-14T13:02:42.685Z,36.10
2023-05-14T13:05:12.189Z,40.58
2023-05-14T13:07:39.866Z,42.05
2023-05-14T13:10:07.837Z,41.13
2023-05-14T13:12:35.328Z,42.67
2023-05-14T13:15:02.840Z,42.63
2023-05-14T13:17:32.770Z,41.65
2023-05-14T13:20:00.268Z,43.00
2023-05-14T13:22:27.863Z,44.85
2023-05-14T13:24:55.251Z,46.80
2023-05-14T13:27:22.726Z,47.83
2023-05-14T13:29:50.147Z,47.60
2023-05-14T13:32:17.632Z,46.22
2023-05-14T13:34:45.160Z,47.88
2023-05-14T13:37:12.688Z,47.38
2023-05-14T13:39:41.171Z,42.83
2023-05-14T13:42:08.821Z,44.00
2023-05-14T13:44:36.578Z,42.42
2023-05-14T13:47:04.596Z,43.08
2023-05-14T13:49:32.108Z,41.70
2023-05-14T13:51:59.625Z,43.40
2023-05-14T13:54:27.213Z,41.45
2023-05-14T13:56:54.745Z,42.75
2023-05-14T13:59:22.366Z,41.97
2023-05-14T14:01:51.030Z,42.58
2023-05-14T14:04:20.155Z,43.67
2023-05-14T14:06:47.609Z,42.75
2023-05-14T14:09:15.112Z,42.08
2023-05-14T14:11:42.819Z,42.03
2023-05-14T14:14:10.285Z,42.30
2023-05-14T14:16:37.926Z,40.17
2023-05-14T14:19:08.008Z,41.80
2023-05-14T14:21:38.273Z,40.20
2023-05-14T14:24:06.600Z,38.92
2023-05-14T14:26:34.132Z,39.50
2023-05-14T14:29:01.902Z,36.28
2023-05-14T14:31:29.476Z,38.13
2023-05-14T14:33:57.038Z,37.75
2023-05-14T14:36:24.652Z,36.63
2023-05-14T14:38:52.143Z,34.80
2023-05-14T14:41:19.727Z,35.38
2023-05-14T14:43:47.235Z,32.75
2023-05-14T14:46:14.821Z,32.33
2023-05-14T14:48:42.441Z,30.88
2023-05-14T14:51:10.171Z,28.42
2023-05-14T14:53:37.719Z,25.85
2023-05-14T14:56:05.675Z,27.88
2023-05-14T14:58:33.342Z,26.73
2023-05-14T15:01:01.637Z,26.30
2023-05-14T15:03:29.598Z,25.75
2023-05-14T15:05:57.362Z,25.98
2023-05-14T15:08:29.000Z,24.25
2023-05-14T15:10:57.073Z,24.42
2023-05-14T15:13:24.969Z,23.23
2023-05-14T15:15:52.972Z,22.13
2023-05-14T15:18:20.864Z,20.90
2023-05-14T15:20:48.708Z,21.05
2023-05-14T15:23:16.348Z,19.65
2023-05-14T15:25:43.893Z,19.98
2023-05-14T15:28:11.640Z,19.67
2023-05-14T15:30:39.128Z,18.88
2023-05-14T15:33:08.919Z,19.67
2023-05-14T15:35:36.905Z,18.30
2023-05-14T15:38:04.562Z,18.52
2023-05-14T15:40:33.543Z,18.38
2023-05-14T15:43:01.139Z,17.45
2023-05-14T15:45:28.771Z,18.67
2023-05-14T15:47:56.265Z,17.92
2023-05-14T15:50:24.014Z,18.95
2023-05-14T15:52:51.544Z,16.90
2023-05-14T15:55:19.094Z,18.00
2023-05-14T15:57:47.540Z,17.40
2023-05-14T16:00:15.437Z,17.40
2023-05-14T16:02:43.069Z,16.88
2023-05-14T16:05:10.712Z,16.98
2023-05-14T16:07:38.941Z,17.70
2023-05-14T16:10:07.335Z,16.33
2023-05-14T16:12:34.996Z,16.30
2023-05-14T16:15:02.520Z,17.25
2023-05-14T16:17:33.105Z,16.60
2023-05-14T16:20:01.557Z,17.00
2023-05-14T16:22:32.233Z,17.77
2023-05-14T16:25:01.830Z,16.10
2023-05-14T16:27:31.903Z,16.92
2023-05-14T16:29:59.498Z,16.30
2023-05-14T16:32:27.982Z,17.20
2023-05-14T16:34:56.733Z,18.02
2023-05-14T16:37:24.249Z,16.80
2023-05-14T16:39:51.735Z,15.80
2023-05-14T16:42:19.270Z,15.45
2023-05-14T16:44:46.794Z,15.85
2023-05-14T16:47:14.419Z,16.23
2023-05-14T16:49:41.933Z,14.88
2023-05-14T16:52:09.461Z,15.98
2023-05-14T16:54:37.280Z,15.15
2023-05-14T16:57:05.376Z,15.38
2023-05-14T16:59:32.857Z,15.35
2023-05-14T17:02:00.624Z,14.07
2023-05-14T17:04:28.328Z,14.88
2023-05-14T17:06:57.623Z,15.20
2023-05-14T17:09:25.328Z,14.70
2023-05-14T17:11:52.911Z,14.55
2023-05-14T17:14:20.404Z,14.40
2023-05-14T17:16:47.923Z,13.75
2023-05-14T17:19:15.819Z,14.18
2023-05-14T17:21:43.327Z,13.93
2023-05-14T17:24:10.787Z,14.60
2023-05-14T17:26:38.379Z,14.38
2023-05-14T17:29:06.136Z,13.77
2023-05-14T17:31:33.749Z,13.88
2023-05-14T17:34:01.383Z,13.88
2023-05-14T17:36:28.889Z,12.10
2023-05-14T17:38:56.423Z,11.30
2023-05-14T17:41:23.884Z,12.20
2023-05-14T17:43:52.823Z,11.02
2023-05-14T17:46:21.797Z,11.73
2023-05-14T17:48:49.293Z,11.65
2023-05-14T17:51:16.703Z,12.30
2023-05-14T17:53:44.329Z,10.82
2023-05-14T17:56:11.854Z,10.70
2023-05-14T17:58:39.319Z,10.57
2023-05-14T18:01:08.276Z,10.60
2023-05-14T18:03:35.921Z,10.05
2023-05-14T18:06:03.568Z,9.27
2023-05-14T18:08:31.109Z,9.93
2023-05-14T18:11:01.047Z,9.18
2023-05-14T18:13:28.568Z,9.55
2023-05-14T18:15:56.873Z,9.50
2023-05-14T18:18:24.609Z,9.35
2023-05-14T18:20:52.852Z,9.75
2023-05-14T18:23:20.343Z,9.73
2023-05-14T18:25:48.514Z,9.50
2023-05-14T18:28:16.186Z,9.65
2023-05-14T18:30:43.854Z,9.52
2023-05-14T18:33:11.524Z,9.30
2023-05-14T18:35:39.117Z,9.30
2023-05-14T18:38:08.296Z,9.20
2023-05-14T18:40:35.730Z,9.10
2023-05-14T18:43:03.273Z,9.13
2023-05-14T18:45:30.919Z,8.77
2023-05-14T18:47:58.370Z,9.15
2023-05-14T18:50:25.977Z,9.10
2023-05-14T18:52:53.485Z,8.52
2023-05-14T18:55:21.055Z,8.80
2023-05-14T18:57:48.665Z,8.73
2023-05-14T19:00:16.447Z,8.75
2023-05-14T19:02:44.237Z,8.80
2023-05-14T19:05:11.714Z,8.73
2023-05-14T19:07:39.395Z,8.85
2023-05-14T19:10:07.934Z,8.52
2023-05-14T19:12:35.438Z,9.73
2023-05-14T19:15:03.181Z,9.30
2023-05-14T19:17:33.016Z,9.30
2023-05-14T19:20:00.549Z,9.10
2023-05-14T19:22:28.185Z,9.02
2023-05-14T19:24:55.786Z,9.65
2023-05-14T19:27:24.839Z,9.43
2023-05-14T19:29:52.321Z,9.70
2023-05-14T19:32:19.858Z,9.15
2023-05-14T19:34:48.065Z,9.25
2023-05-14T19:37:16.501Z,9.25
2023-05-14T19:39:44.052Z,9.88
2023-05-14T19:42:11.649Z,9.80
2023-05-14T19:44:39.371Z,9.43
2023-05-14T19:47:07.785Z,9.20
2023-05-14T19:49:35.279Z,10.18
2023-05-14T19:52:02.863Z,9.52
2023-05-14T19:54:30.344Z,9.52
2023-05-14T19:56:57.809Z,9.00
2023-05-14T19:59:25.642Z,8.80
2023-05-14T20:01:54.783Z,8.75
2023-05-14T20:04:22.330Z,8.73
2023-05-14T20:06:50.052Z,9.13
2023-05-14T20:09:17.535Z,8.60
2023-05-14T20:11:45.111Z,8.77
2023-05-14T20:14:12.742Z,8.60
2023-05-14T20:16:40.357Z,8.25
2023-05-14T20:19:08.396Z,8.80
2023-05-14T20:21:36.009Z,8.57
2023-05-14T20:24:03.747Z,8.15
2023-05-14T20:26:31.411Z,8.68
2023-05-14T20:28:58.846Z,8.02
2023-05-14T20:31:26.455Z,9.00
2023-05-14T20:33:54.157Z,8.93
2023-05-14T20:36:22.575Z,9.27
2023-05-14T20:38:50.590Z,8.35
2023-05-14T20:41:18.084Z,9.15
2023-05-14T20:43:45.772Z,9.32
2023-05-14T20:46:13.471Z,10.30
2023-05-14T20:48:41.003Z,10.00
2023-05-14T20:51:08.603Z,10.48
2023-05-14T20:53:39.538Z,11.57
2023-05-14T20:56:07.292Z,10.98
2023-05-14T20:58:35.851Z,11.30
2023-05-14T21:01:04.878Z,12.00
2023-05-14T21:03:32.632Z,11.38
2023-05-14T21:06:00.971Z,11.68
2023-05-14T21:08:28.438Z,12.05
2023-05-14T21:10:56.371Z,11.50
2023-05-14T21:13:23.920Z,11.65
2023-05-14T21:15:51.616Z,11.85
2023-05-14T21:18:19.129Z,12.32
2023-05-14T21:20:46.592Z,13.18
2023-05-14T21:23:15.012Z,12.93
2023-05-14T21:25:42.658Z,13.00
2023-05-14T21:28:10.260Z,13.20
2023-05-14T21:30:37.733Z,13.10
2023-05-14T21:33:05.361Z,12.30
2023-05-14T21:35:33.135Z,13.07
2023-05-14T21:38:00.819Z,12.70
2023-05-14T21:40:28.349Z,11.55
2023-05-14T21:42:55.808Z,11.13
2023-05-14T21:45:23.838Z,11.35
2023-05-14T21:47:51.571Z,10.80
2023-05-14T21:50:19.219Z,10.75
2023-05-14T21:52:46.964Z,10.98
2023-05-14T21:55:14.422Z,11.00
2023-05-14T21:57:41.881Z,11.55
2023-05-14T22:00:12.945Z,11.50
2023-05-14T22:02:42.540Z,11.02
2023-05-14T22:05:10.202Z,11.15
2023-05-14T22:07:37.728Z,12.02
2023-05-14T22:10:05.497Z,11.20
2023-05-14T22:12:33.055Z,11.20
2023-05-14T22:15:00.500Z,11.45
2023-05-14T22:17:30.891Z,11.48
2023-05-14T22:19:58.367Z,11.25
2023-05-14T22:22:25.893Z,11.98
2023-05-14T22:24:53.329Z,11.40
2023-05-14T22:27:20.850Z,12.30
2023-05-14T22:29:48.456Z,11.43
2023-05-14T22:32:16.039Z,11.07
2023-05-14T22:34:43.535Z,10.88
2023-05-14T22:37:10.986Z,10.95
2023-05-14T22:39:38.638Z,11.45
2023-05-14T22:42:06.593Z,11.90
2023-05-14T22:44:34.118Z,11.77
2023-05-14T22:47:01.603Z,12.65
2023-05-14T22:49:29.091Z,12.13
2023-05-14T22:51:56.598Z,12.45
2023-05-14T22:54:24.165Z,12.85
2023-05-14T22:56:51.845Z,12.68
2023-05-14T22:59:20.575Z,14.40
2023-05-14T23:01:49.804Z,15.57
2023-05-14T23:04:17.455Z,13.88
2023-05-14T23:06:45.100Z,15.15
2023-05-14T23:09:12.684Z,14.48
2023-05-14T23:11:40.242Z,15.02
2023-05-14T23:14:07.764Z,14.95
2023-05-14T23:16:35.561Z,16.13
2023-05-14T23:19:03.586Z,16.92
2023-05-14T23:21:31.728Z,17.00
2023-05-14T23:23:59.236Z,16.23
2023-05-14T23:26:26.765Z,19.08
2023-05-14T23:28:54.277Z,17.63
2023-05-14T23:31:21.912Z,17.10
2023-05-14T23:33:49.458Z,17.80
2023-05-14T23:36:16.940Z,18.73
2023-05-14T23:38:44.575Z,18.65
2023-05-14T23:41:11.996Z,18.58
2023-05-14T23:43:39.451Z,19.20
2023-05-14T23:46:07.179Z,18.77
2023-05-14T23:48:34.847Z,20.60
2023-05-14T23:51:02.383Z,21.02
2023-05-14T23:53:29.842Z,22.90
2023-05-14T23:55:57.462Z,23.73
2023-05-14T23:58:25.025Z,25.45
